createdAt,value
2019-03-23T00:00:02.329Z,111.30
2019-03-23T00:02:30.668Z,126.47
2019-03-23T00:04:58.984Z,108.87
2019-03-23T00:07:27.243Z,119.47
2019-03-23T00:09:55.680Z,120.37
2019-03-23T00:12:23.925Z,152.43
2019-03-23T00:14:52.177Z,159.80
2019-03-23T00:17:20.524Z,152.83
2019-03-23T00:19:49.098Z,141.90
2019-03-23T00:22:17.432Z,170.17
2019-03-23T00:24:45.757Z,139.10
2019-03-23T00:27:14.021Z,155.77
2019-03-23T00:29:42.372Z,161.20
2019-03-23T00:32:10.784Z,159.03
2019-03-23T00:34:39.079Z,149.43
2019-03-23T00:37:07.338Z,152.60
2019-03-23T00:39:35.728Z,151.77
2019-03-23T00:42:03.980Z,145.63
2019-03-23T00:44:32.240Z,149.07
2019-03-23T00:47:00.663Z,128.40
2019-03-23T00:49:28.958Z,149.67
2019-03-23T00:51:57.921Z,130.93
2019-03-23T00:54:26.305Z,147.83
2019-03-23T00:56:54.666Z,154.17
2019-03-23T00:59:23.201Z,146.17
2019-03-23T01:01:51.554Z,140.30
2019-03-23T01:04:20.373Z,144.23
2019-03-23T01:06:52.332Z,139.43
2019-03-23T01:09:18.844Z,131.07
2019-03-23T01:11:47.137Z,129.67
2019-03-23T01:14:15.529Z,143.93
2019-03-23T01:16:43.830Z,140.00
2019-03-23T01:19:12.081Z,147.30
2019-03-23T01:21:40.389Z,147.43
2019-03-23T01:24:08.657Z,140.13
2019-03-23T01:26:36.936Z,137.90
2019-03-23T01:29:05.229Z,136.77
2019-03-23T01:31:33.533Z,141.43
2019-03-23T01:34:01.926Z,139.50
2019-03-23T01:36:30.177Z,152.37
2019-03-23T01:38:58.450Z,141.57
2019-03-23T01:41:26.816Z,124.47
2019-03-23T01:43:55.300Z,135.20
2019-03-23T01:46:23.528Z,128.50
2019-03-23T01:48:51.781Z,140.63
2019-03-23T01:51:20.224Z,159.17
2019-03-23T01:53:48.475Z,121.17
2019-03-23T01:56:17.293Z,132.23
2019-03-23T01:58:45.730Z,133.40
2019-03-23T02:01:14.049Z,128.83
2019-03-23T02:03:42.308Z,133.67
2019-03-23T02:06:10.714Z,141.93
2019-03-23T02:08:38.982Z,119.53
2019-03-23T02:11:07.230Z,138.77
2019-03-23T02:13:35.565Z,140.50
2019-03-23T02:16:03.820Z,139.73
2019-03-23T02:18:33.111Z,117.80
2019-03-23T02:21:02.236Z,124.10
2019-03-23T02:23:30.490Z,133.00
2019-03-23T02:25:58.934Z,123.60
2019-03-23T02:28:27.241Z,140.70
2019-03-23T02:30:55.555Z,137.30
2019-03-23T02:33:23.858Z,125.33
2019-03-23T02:35:52.683Z,122.40
2019-03-23T02:38:20.950Z,125.00
2019-03-23T02:40:49.278Z,123.73
2019-03-23T02:43:17.595Z,133.60
2019-03-23T02:45:46.054Z,116.40
2019-03-23T02:48:14.349Z,111.17
2019-03-23T02:50:42.796Z,105.50
2019-03-23T02:53:11.049Z,104.60
2019-03-23T02:55:40.391Z,106.97
2019-03-23T02:58:08.722Z,121.07
2019-03-23T03:00:37.040Z,112.70
2019-03-23T03:03:05.403Z,103.90
2019-03-23T03:05:33.681Z,108.93
2019-03-23T03:08:01.926Z,95.17
2019-03-23T03:10:40.722Z,120.97
2019-03-23T03:13:09.062Z,100.33
2019-03-23T03:15:37.362Z,97.63
2019-03-23T03:18:06.688Z,101.93
2019-03-23T03:20:35.062Z,97.10
2019-03-23T03:23:03.612Z,99.27
2019-03-23T03:25:31.952Z,97.17
2019-03-23T03:28:00.387Z,95.13
2019-03-23T03:30:28.717Z,102.17
2019-03-23T03:32:56.966Z,85.77
2019-03-23T03:35:25.250Z,75.97
2019-03-23T03:37:56.706Z,89.93
2019-03-23T03:40:23.522Z,96.27
2019-03-23T03:42:51.858Z,93.07
2019-03-23T03:45:27.729Z,93.40
2019-03-23T03:47:56.134Z,91.90
2019-03-23T03:50:24.422Z,96.93
2019-03-23T03:52:52.666Z,99.93
2019-03-23T03:55:21.081Z,97.50
2019-03-23T03:57:49.337Z,97.20
2019-03-23T04:00:17.661Z,90.67
2019-03-23T04:02:45.952Z,101.07
2019-03-23T04:05:14.237Z,90.60
2019-03-23T04:07:42.623Z,97.83
2019-03-23T04:10:10.876Z,98.93
2019-03-23T04:12:39.147Z,104.13
2019-03-23T04:15:08.785Z,96.83
2019-03-23T04:17:37.162Z,112.43
2019-03-23T04:20:07.940Z,96.63
2019-03-23T04:22:36.753Z,104.53
2019-03-23T04:25:09.332Z,88.83
2019-03-23T04:27:37.632Z,96.97
2019-03-23T04:30:07.309Z,108.37
2019-03-23T04:32:35.595Z,104.80
2019-03-23T04:35:04.584Z,103.17
2019-03-23T04:37:32.901Z,107.93
2019-03-23T04:40:01.501Z,103.30
2019-03-23T04:42:29.928Z,110.73
2019-03-23T04:44:58.213Z,111.90
2019-03-23T04:47:26.837Z,93.63
2019-03-23T04:49:55.112Z,103.00
2019-03-23T04:52:23.412Z,103.50
2019-03-23T04:54:51.796Z,92.53
2019-03-23T04:57:20.107Z,104.37
2019-03-23T04:59:48.402Z,98.50
2019-03-23T05:02:16.699Z,100.50
2019-03-23T05:04:44.997Z,94.73
2019-03-23T05:07:13.657Z,98.63
2019-03-23T05:09:42.346Z,93.70
2019-03-23T05:12:10.690Z,97.80
2019-03-23T05:14:39.511Z,96.00
2019-03-23T05:17:08.042Z,90.60
2019-03-23T05:19:36.340Z,98.00
2019-03-23T05:22:04.592Z,112.40
2019-03-23T05:24:32.931Z,96.90
2019-03-23T05:27:01.400Z,100.40
2019-03-23T05:29:30.102Z,92.43
2019-03-23T05:31:58.351Z,95.87
2019-03-23T05:34:26.660Z,92.37
2019-03-23T05:36:55.703Z,99.87
2019-03-23T05:39:23.991Z,89.47
2019-03-23T05:41:52.272Z,91.43
2019-03-23T05:44:20.725Z,110.50
2019-03-23T05:46:48.973Z,108.93
2019-03-23T05:49:17.859Z,119.80
2019-03-23T05:51:46.543Z,131.90
2019-03-23T05:54:14.785Z,122.77
2019-03-23T05:56:43.068Z,120.30
2019-03-23T05:59:11.347Z,119.57
2019-03-23T06:01:39.599Z,117.33
2019-03-23T06:04:08.047Z,112.10
2019-03-23T06:06:36.294Z,124.57
2019-03-23T06:09:06.448Z,128.03
2019-03-23T06:11:34.732Z,128.00
2019-03-23T06:14:03.291Z,132.77
2019-03-23T06:16:31.753Z,137.47
2019-03-23T06:19:00.049Z,130.10
2019-03-23T06:21:28.295Z,116.57
2019-03-23T06:23:56.609Z,125.20
2019-03-23T06:26:24.892Z,131.67
2019-03-23T06:28:53.141Z,118.03
2019-03-23T06:31:21.522Z,130.60
2019-03-23T06:33:49.790Z,117.73
2019-03-23T06:36:18.082Z,132.60
2019-03-23T06:38:46.347Z,133.60
2019-03-23T06:41:14.743Z,129.80
2019-03-23T06:43:43.018Z,126.00
2019-03-23T06:48:42.213Z,132.30
2019-03-23T06:51:10.526Z,117.03
2019-03-23T06:53:40.349Z,116.30
2019-03-23T06:56:08.612Z,133.67
2019-03-23T06:58:38.585Z,121.70
2019-03-23T07:01:07.058Z,125.33
2019-03-23T07:03:35.340Z,133.53
2019-03-23T07:06:03.778Z,136.57
2019-03-23T07:08:32.420Z,148.33
2019-03-23T07:11:00.823Z,141.67
2019-03-23T07:13:29.170Z,133.27
2019-03-23T07:15:57.439Z,130.67
2019-03-23T07:18:25.673Z,139.20
2019-03-23T07:20:53.975Z,148.23
2019-03-23T07:23:22.231Z,122.90
2019-03-23T07:25:50.542Z,138.70
2019-03-23T07:28:18.826Z,135.53
2019-03-23T07:30:47.081Z,129.37
2019-03-23T07:33:15.469Z,119.50
2019-03-23T07:35:44.238Z,136.83
2019-03-23T07:38:12.535Z,140.70
2019-03-23T07:40:40.826Z,146.50
2019-03-23T07:43:09.150Z,119.47
2019-03-23T07:45:37.445Z,128.27
2019-03-23T07:48:05.698Z,113.67
2019-03-23T07:50:33.977Z,113.47
2019-03-23T07:53:02.333Z,127.03
2019-03-23T07:55:31.362Z,130.60
2019-03-23T07:57:59.638Z,139.53
2019-03-23T08:00:27.896Z,123.67
2019-03-23T08:02:56.174Z,109.27
2019-03-23T08:05:24.436Z,122.50
2019-03-23T08:07:52.748Z,108.93
2019-03-23T08:10:29.516Z,112.40
2019-03-23T08:12:57.852Z,120.10
2019-03-23T08:15:26.241Z,111.63
2019-03-23T08:17:55.103Z,113.30
2019-03-23T08:20:23.806Z,110.93
2019-03-23T08:22:52.827Z,115.37
2019-03-23T08:25:21.124Z,100.83
2019-03-23T08:27:49.441Z,100.03
2019-03-23T08:30:17.706Z,100.50
2019-03-23T08:32:46.043Z,120.60
2019-03-23T08:35:14.308Z,107.40
2019-03-23T08:37:42.622Z,92.73
2019-03-23T08:40:10.977Z,112.63
2019-03-23T08:42:39.324Z,125.80
2019-03-23T08:45:08.221Z,92.30
2019-03-23T08:47:36.462Z,97.07
2019-03-23T08:50:06.348Z,111.40
2019-03-23T08:52:34.608Z,94.37
2019-03-23T08:55:02.920Z,100.77
2019-03-23T08:57:31.187Z,110.03
2019-03-23T08:59:59.508Z,98.17
2019-03-23T09:02:27.821Z,113.20
2019-03-23T09:04:56.074Z,104.90
2019-03-23T09:07:24.338Z,114.20
2019-03-23T09:09:59.171Z,95.00
2019-03-23T09:12:22.637Z,105.67
2019-03-23T09:14:50.912Z,98.67
2019-03-23T09:17:19.225Z,100.53
2019-03-23T09:19:47.521Z,99.87
2019-03-23T09:22:15.819Z,104.73
2019-03-23T09:24:44.160Z,99.17
2019-03-23T09:27:13.566Z,112.77
2019-03-23T09:29:42.691Z,110.10
2019-03-23T09:32:11.451Z,93.53
2019-03-23T09:34:39.861Z,98.03
2019-03-23T09:37:08.692Z,94.80
2019-03-23T09:39:38.022Z,116.00
2019-03-23T09:42:07.154Z,94.80
2019-03-23T09:44:35.595Z,93.90
2019-03-23T09:47:03.910Z,91.63
2019-03-23T09:49:32.201Z,100.43
2019-03-23T09:52:00.509Z,99.07
2019-03-23T09:54:29.038Z,95.23
2019-03-23T09:56:59.595Z,92.53
2019-03-23T09:59:27.999Z,93.10
2019-03-23T10:01:56.334Z,96.07
2019-03-23T10:04:24.637Z,94.40
2019-03-23T10:06:53.067Z,90.07
2019-03-23T10:09:21.319Z,91.87
2019-03-23T10:11:49.580Z,99.57
2019-03-23T10:14:17.901Z,90.87
2019-03-23T10:16:46.254Z,85.07
2019-03-23T10:19:15.275Z,89.10
2019-03-23T10:21:43.582Z,89.13
2019-03-23T10:24:11.886Z,85.87
2019-03-23T10:26:40.154Z,80.37
2019-03-23T10:29:08.449Z,86.17
2019-03-23T10:31:36.836Z,96.83
2019-03-23T10:34:05.227Z,94.83
2019-03-23T10:36:33.474Z,94.10
2019-03-23T10:39:02.735Z,78.53
2019-03-23T10:41:30.988Z,77.10
2019-03-23T10:43:59.243Z,82.33
2019-03-23T10:46:27.633Z,83.67
2019-03-23T10:48:55.888Z,84.53
2019-03-23T10:51:24.230Z,82.77
2019-03-23T10:53:52.556Z,86.97
2019-03-23T10:56:20.817Z,85.20
2019-03-23T10:58:49.098Z,82.73
2019-03-23T11:01:17.354Z,86.37
2019-03-23T11:03:45.643Z,83.67
2019-03-23T11:06:13.944Z,78.90
2019-03-23T11:08:42.221Z,76.43
2019-03-23T11:11:10.469Z,80.10
2019-03-23T11:13:38.781Z,85.13
2019-03-23T11:16:07.071Z,79.03
2019-03-23T11:18:35.340Z,86.67
2019-03-23T11:21:03.685Z,88.60
2019-03-23T11:23:32.075Z,76.63
2019-03-23T11:26:00.380Z,85.60
2019-03-23T11:28:28.663Z,79.83
2019-03-23T11:30:57.003Z,86.27
2019-03-23T11:33:25.260Z,90.90
2019-03-23T11:35:57.667Z,70.77
2019-03-23T11:38:23.579Z,74.17
2019-03-23T11:40:55.061Z,76.17
2019-03-23T11:43:21.963Z,70.63
2019-03-23T11:45:50.251Z,69.20
2019-03-23T11:48:18.528Z,69.30
2019-03-23T11:50:46.788Z,70.37
2019-03-23T11:53:15.125Z,76.90
2019-03-23T11:55:43.558Z,71.07
2019-03-23T11:58:11.851Z,67.67
2019-03-23T12:00:40.484Z,70.07
2019-03-23T12:03:08.742Z,58.27
2019-03-23T12:05:37.000Z,85.53
2019-03-23T12:08:05.352Z,64.93
2019-03-23T12:10:33.603Z,56.83
2019-03-23T12:13:01.919Z,60.83
2019-03-23T12:15:30.232Z,53.37
2019-03-23T12:17:58.509Z,56.70
2019-03-23T12:20:26.831Z,68.03
2019-03-23T12:22:55.141Z,64.33
2019-03-23T12:25:23.657Z,55.80
2019-03-23T12:27:51.901Z,73.07
2019-03-23T12:30:20.157Z,61.63
2019-03-23T12:32:48.438Z,56.30
2019-03-23T12:35:16.818Z,35.03
2019-03-23T12:37:45.105Z,28.40
2019-03-23T12:40:13.432Z,29.97
2019-03-23T12:42:41.712Z,28.40
2019-03-23T12:45:10.880Z,34.43
2019-03-23T12:47:39.159Z,28.43
2019-03-23T12:50:08.246Z,26.00
2019-03-23T12:52:36.568Z,25.77
2019-03-23T12:55:08.831Z,21.43
2019-03-23T12:57:37.185Z,23.40
2019-03-23T13:00:14.672Z,27.80
2019-03-23T13:02:43.051Z,29.57
2019-03-23T13:05:11.306Z,18.53
2019-03-23T13:07:39.565Z,27.67
2019-03-23T13:10:12.542Z,17.30
2019-03-23T13:12:40.785Z,15.53
2019-03-23T13:15:11.280Z,25.57
2019-03-23T13:17:39.609Z,19.87
2019-03-23T13:20:09.010Z,16.63
2019-03-23T13:22:37.301Z,17.30
2019-03-23T13:25:07.844Z,33.17
2019-03-23T13:27:36.087Z,24.00
2019-03-23T13:30:13.233Z,21.93
2019-03-23T13:32:41.545Z,28.43
2019-03-23T13:35:09.841Z,27.43
2019-03-23T13:37:38.088Z,25.90
2019-03-23T13:40:07.515Z,18.10
2019-03-23T13:42:35.785Z,14.10
2019-03-23T13:45:07.058Z,21.77
2019-03-23T13:47:35.311Z,10.47
2019-03-23T13:50:05.280Z,17.13
2019-03-23T13:52:33.547Z,9.83
2019-03-23T13:55:01.970Z,16.97
2019-03-23T13:57:30.394Z,13.70
2019-03-23T13:59:58.667Z,16.47
2019-03-23T14:02:27.105Z,27.63
2019-03-23T14:04:55.358Z,16.13
2019-03-23T14:07:23.754Z,15.60
2019-03-23T14:09:52.164Z,16.80
2019-03-23T14:12:20.401Z,15.40
2019-03-23T14:14:48.832Z,17.10
2019-03-23T14:17:17.945Z,13.27
2019-03-23T14:19:46.400Z,15.70
2019-03-23T14:22:14.664Z,12.63
2019-03-23T14:24:42.967Z,7.50
2019-03-23T14:27:11.367Z,10.90
2019-03-23T14:29:39.655Z,16.33
2019-03-23T14:32:08.618Z,6.43
2019-03-23T14:34:36.869Z,15.93
2019-03-23T14:37:05.164Z,8.23
2019-03-23T14:39:34.044Z,11.00
2019-03-23T14:42:05.081Z,16.10
2019-03-23T14:44:32.395Z,15.40
2019-03-23T14:47:00.668Z,8.87
2019-03-23T14:49:28.921Z,10.70
2019-03-23T14:51:57.214Z,12.30
2019-03-23T14:54:25.465Z,13.00
2019-03-23T14:56:54.633Z,13.27
2019-03-23T14:59:22.937Z,17.10
2019-03-23T15:01:51.191Z,6.33
2019-03-23T15:04:20.054Z,10.40
2019-03-23T15:06:48.326Z,14.07
2019-03-23T15:09:16.609Z,14.50
2019-03-23T15:11:44.961Z,12.57
2019-03-23T15:14:13.206Z,33.03
2019-03-23T15:16:41.453Z,12.87
2019-03-23T15:19:09.732Z,16.30
2019-03-23T15:21:37.979Z,18.60
2019-03-23T15:24:06.358Z,11.77
2019-03-23T15:26:34.607Z,12.63
2019-03-23T15:29:02.871Z,15.47
2019-03-23T15:31:31.257Z,10.93
2019-03-23T15:33:59.515Z,19.63
2019-03-23T15:36:27.762Z,13.13
2019-03-23T15:38:56.154Z,10.83
2019-03-23T15:41:24.839Z,11.90
2019-03-23T15:43:53.156Z,8.00
2019-03-23T15:46:21.495Z,10.20
2019-03-23T15:48:49.749Z,16.03
2019-03-23T15:51:18.130Z,11.73
2019-03-23T15:53:46.372Z,8.90
2019-03-23T15:56:14.616Z,21.10
2019-03-23T15:58:42.919Z,18.23
2019-03-23T16:01:11.237Z,15.97
2019-03-23T16:03:39.483Z,12.07
2019-03-23T16:06:07.900Z,16.27
2019-03-23T16:08:36.183Z,12.43
2019-03-23T16:11:04.481Z,22.90
2019-03-23T16:13:32.877Z,16.00
2019-03-23T16:16:01.137Z,10.40
2019-03-23T16:18:29.425Z,12.23
2019-03-23T16:20:57.704Z,12.57
2019-03-23T16:23:26.043Z,14.90
2019-03-23T16:25:54.343Z,9.50
2019-03-23T16:28:22.690Z,8.90
2019-03-23T16:30:51.010Z,11.93
2019-03-23T16:33:19.273Z,18.57
2019-03-23T16:35:47.555Z,11.63
2019-03-23T16:38:15.950Z,20.70
2019-03-23T16:40:44.273Z,52.63
2019-03-23T16:43:12.514Z,20.70
2019-03-23T16:45:40.802Z,15.10
2019-03-23T16:48:09.111Z,19.83
2019-03-23T16:50:37.399Z,27.73
2019-03-23T16:53:05.737Z,32.93
2019-03-23T16:55:34.032Z,16.80
2019-03-23T16:58:02.351Z,21.03
2019-03-23T17:00:37.674Z,19.03
2019-03-23T17:03:06.212Z,15.87
2019-03-23T17:05:36.372Z,25.77
2019-03-23T17:08:04.605Z,16.93
2019-03-23T17:10:32.910Z,12.37
2019-03-23T17:13:01.185Z,16.43
2019-03-23T17:15:29.461Z,19.73
2019-03-23T17:17:57.741Z,22.73
2019-03-23T17:20:26.005Z,18.73
2019-03-23T17:22:54.269Z,13.90
2019-03-23T17:25:22.869Z,28.40
2019-03-23T17:27:51.153Z,18.37
2019-03-23T17:30:19.516Z,19.30
2019-03-23T17:32:47.815Z,14.33
2019-03-23T17:35:16.108Z,22.37
2019-03-23T17:37:44.404Z,31.03
2019-03-23T17:40:12.776Z,15.63
2019-03-23T17:42:41.067Z,17.87
2019-03-23T17:45:09.888Z,26.83
2019-03-23T17:47:38.244Z,16.17
2019-03-23T17:50:06.513Z,17.07
2019-03-23T17:52:35.112Z,17.70
2019-03-23T17:55:04.502Z,12.30
2019-03-23T17:57:32.771Z,14.70
2019-03-23T18:00:01.045Z,12.27
2019-03-23T18:02:29.390Z,14.80
2019-03-23T18:04:57.684Z,20.63
2019-03-23T18:07:25.950Z,18.40
2019-03-23T18:09:54.339Z,18.50
2019-03-23T18:12:22.762Z,18.20
2019-03-23T18:14:51.048Z,11.30
2019-03-23T18:17:19.288Z,24.60
2019-03-23T18:19:47.720Z,18.97
2019-03-23T18:22:15.981Z,16.50
2019-03-23T18:24:44.228Z,12.70
2019-03-23T18:27:12.502Z,18.60
2019-03-23T18:29:40.958Z,14.20
2019-03-23T18:32:09.323Z,17.50
2019-03-23T18:34:37.611Z,11.53
2019-03-23T18:37:06.056Z,15.97
2019-03-23T18:39:34.515Z,10.83
2019-03-23T18:42:02.818Z,22.93
2019-03-23T18:44:31.061Z,17.20
2019-03-23T18:46:59.306Z,19.97
2019-03-23T18:49:27.696Z,16.57
2019-03-23T18:51:55.977Z,13.33
2019-03-23T18:54:24.255Z,18.23
2019-03-23T18:56:52.517Z,20.63
2019-03-23T18:59:20.820Z,23.50
2019-03-23T19:01:49.091Z,20.30
2019-03-23T19:04:17.327Z,16.23
2019-03-23T19:06:45.637Z,22.63
2019-03-23T19:09:13.963Z,23.67
2019-03-23T19:11:42.249Z,11.73
2019-03-23T19:14:12.252Z,18.20
2019-03-23T19:16:41.291Z,20.40
2019-03-23T19:19:09.893Z,14.53
2019-03-23T19:21:38.326Z,16.50
2019-03-23T19:24:06.636Z,20.77
2019-03-23T19:26:34.880Z,15.63
2019-03-23T19:29:03.148Z,22.03
2019-03-23T19:31:31.595Z,24.10
2019-03-23T19:34:00.754Z,18.90
2019-03-23T19:36:29.061Z,25.03
2019-03-23T19:38:57.319Z,18.53
2019-03-23T19:41:25.773Z,23.53
2019-03-23T19:43:54.024Z,20.73
2019-03-23T19:46:22.314Z,33.20
2019-03-23T19:48:50.619Z,22.63
2019-03-23T19:51:18.919Z,18.03
2019-03-23T19:53:47.339Z,20.17
2019-03-23T19:56:15.582Z,15.83
2019-03-23T19:58:43.896Z,12.63
2019-03-23T20:01:12.206Z,18.97
2019-03-23T20:03:40.564Z,16.13
2019-03-23T20:06:08.936Z,18.67
2019-03-23T20:08:37.282Z,24.10
2019-03-23T20:11:05.577Z,21.03
2019-03-23T20:13:33.863Z,19.37
2019-03-23T20:16:02.191Z,33.83
2019-03-23T20:18:30.577Z,26.60
2019-03-23T20:20:58.822Z,17.10
2019-03-23T20:23:27.190Z,18.80
2019-03-23T20:25:55.594Z,17.03
2019-03-23T20:28:23.841Z,31.37
2019-03-23T20:30:52.091Z,30.40
2019-03-23T20:33:20.450Z,16.23
2019-03-23T20:35:48.692Z,38.77
2019-03-23T20:38:17.178Z,27.40
2019-03-23T20:40:45.455Z,39.47
2019-03-23T20:43:13.735Z,9.37
2019-03-23T20:45:41.993Z,16.57
2019-03-23T20:48:10.258Z,26.00
2019-03-23T20:50:38.534Z,15.23
2019-03-23T20:53:06.811Z,17.47
2019-03-23T20:55:35.109Z,22.73
2019-03-23T20:58:03.357Z,17.00
2019-03-23T21:00:31.607Z,26.20
2019-03-23T21:02:59.882Z,11.20
2019-03-23T21:05:33.760Z,22.37
2019-03-23T21:07:58.099Z,23.77
2019-03-23T21:10:26.421Z,25.23
2019-03-23T21:12:54.818Z,18.30
2019-03-23T21:15:23.221Z,35.63
2019-03-23T21:17:51.746Z,21.50
2019-03-23T21:20:20.058Z,20.57
2019-03-23T21:22:48.324Z,12.37
2019-03-23T21:25:16.809Z,15.07
2019-03-23T21:27:45.127Z,17.73
2019-03-23T21:30:14.934Z,23.97
2019-03-23T21:32:43.279Z,23.53
2019-03-23T21:35:11.954Z,13.40
2019-03-23T21:37:40.513Z,18.60
2019-03-23T21:40:08.759Z,29.43
2019-03-23T21:42:37.052Z,35.17
2019-03-23T21:45:08.203Z,24.50
2019-03-23T21:47:36.456Z,32.13
2019-03-23T21:50:07.146Z,12.80
2019-03-23T21:52:35.492Z,28.60
2019-03-23T21:55:04.621Z,18.13
2019-03-23T21:57:32.855Z,23.23
2019-03-23T22:00:01.154Z,18.97
2019-03-23T22:02:29.545Z,20.10
2019-03-23T22:04:57.781Z,28.67
2019-03-23T22:07:26.038Z,20.00
2019-03-23T22:09:54.330Z,17.30
2019-03-23T22:12:22.690Z,19.07
2019-03-23T22:14:50.960Z,32.03
2019-03-23T22:17:19.306Z,44.67
2019-03-23T22:19:47.622Z,43.57
2019-03-23T22:22:15.922Z,30.27
2019-03-23T22:24:44.242Z,35.30
2019-03-23T22:27:12.492Z,48.23
2019-03-23T22:29:40.747Z,20.27
2019-03-23T22:32:09.154Z,34.67
2019-03-23T22:34:37.435Z,29.83
2019-03-23T22:37:05.731Z,48.33
2019-03-23T22:39:34.132Z,45.60
2019-03-23T22:42:02.372Z,25.00
2019-03-23T22:44:30.743Z,14.87
2019-03-23T22:46:59.048Z,25.57
2019-03-23T22:49:28.087Z,15.53
2019-03-23T22:51:56.846Z,21.47
2019-03-23T22:54:25.164Z,23.90
2019-03-23T22:56:53.494Z,16.50
2019-03-23T22:59:21.806Z,16.60
2019-03-23T23:01:50.152Z,16.87
2019-03-23T23:04:18.482Z,20.30
2019-03-23T23:06:46.781Z,35.17
2019-03-23T23:09:15.202Z,30.70
2019-03-23T23:11:43.529Z,23.60
2019-03-23T23:14:11.801Z,12.00
2019-03-23T23:16:40.212Z,28.87
2019-03-23T23:19:08.457Z,21.90
2019-03-23T23:21:36.706Z,25.80
2019-03-23T23:24:04.971Z,27.90
2019-03-23T23:26:33.535Z,28.00
2019-03-23T23:29:01.909Z,12.30
2019-03-23T23:31:30.292Z,22.57
2019-03-23T23:33:58.528Z,16.83
2019-03-23T23:36:26.824Z,19.67
2019-03-23T23:38:55.087Z,41.73
2019-03-23T23:41:23.355Z,17.60
2019-03-23T23:43:51.676Z,13.20
2019-03-23T23:46:19.914Z,21.57
2019-03-23T23:48:51.487Z,15.63
2019-03-23T23:51:18.161Z,22.07
2019-03-23T23:53:46.556Z,23.73
2019-03-23T23:56:14.794Z,17.87
2019-03-23T23:58:43.044Z,26.73
